createdAt,value
2016-12-24T00:00:57.548Z,980.35
2016-12-24T00:01:57.512Z,980.36
2016-12-24T00:02:57.470Z,980.33
2016-12-24T00:03:57.428Z,980.36
2016-12-24T00:04:57.387Z,980.33
2016-12-24T00:05:57.347Z,980.29
2016-12-24T00:06:57.313Z,980.24
2016-12-24T00:07:57.267Z,980.17
2016-12-24T00:08:57.226Z,980.11
2016-12-24T00:09:57.187Z,980.05
2016-12-24T00:10:57.146Z,980.03
2016-12-24T00:11:57.108Z,979.96
2016-12-24T00:12:57.067Z,979.96
2016-12-24T00:13:57.031Z,980.01
2016-12-24T00:14:56.985Z,980
2016-12-24T00:15:56.943Z,980.02
2016-12-24T00:16:56.917Z,979.96
2016-12-24T00:17:56.864Z,979.98
2016-12-24T00:18:56.822Z,979.96
2016-12-24T00:19:56.782Z,980.01
2016-12-24T00:20:56.742Z,979.97
2016-12-24T00:21:56.700Z,979.98
2016-12-24T00:22:56.660Z,980
2016-12-24T00:23:56.619Z,979.97
2016-12-24T00:24:56.579Z,979.95
2016-12-24T00:25:56.537Z,979.96
2016-12-24T00:26:56.497Z,980.02
2016-12-24T00:27:56.457Z,980.06
2016-12-24T00:28:56.417Z,980.03
2016-12-24T00:29:56.376Z,979.98
2016-12-24T00:30:56.336Z,979.89
2016-12-24T00:31:56.295Z,979.9
2016-12-24T00:32:56.254Z,979.91
2016-12-24T00:33:56.216Z,979.91
2016-12-24T00:34:56.175Z,979.96
2016-12-24T00:35:56.132Z,980.07
2016-12-24T00:36:56.091Z,980.05
2016-12-24T00:37:56.051Z,980.05
2016-12-24T00:38:56.012Z,979.99
2016-12-24T00:39:55.971Z,979.94
2016-12-24T00:40:55.929Z,979.96
2016-12-24T00:41:55.888Z,979.97
2016-12-24T00:42:55.848Z,980.03
2016-12-24T00:43:55.809Z,980.06
2016-12-24T00:44:55.768Z,980.09
2016-12-24T00:45:55.726Z,980.04
2016-12-24T00:46:55.685Z,980.06
2016-12-24T00:47:55.645Z,980.04
2016-12-24T00:48:55.605Z,980.06
2016-12-24T00:49:55.563Z,980
2016-12-24T00:50:55.524Z,979.95
2016-12-24T00:51:55.482Z,979.97
2016-12-24T00:52:55.444Z,979.94
2016-12-24T00:53:55.401Z,980
2016-12-24T00:54:55.361Z,980.02
2016-12-24T00:55:55.322Z,980.12
2016-12-24T00:56:55.279Z,980.12
2016-12-24T00:57:55.240Z,980.19
2016-12-24T00:58:55.199Z,980.15
2016-12-24T00:59:55.160Z,980.18
2016-12-24T01:00:55.117Z,980.28
2016-12-24T01:01:55.079Z,980.29
2016-12-24T01:02:55.037Z,980.24
2016-12-24T01:03:54.996Z,980.27
2016-12-24T01:04:54.968Z,980.26
2016-12-24T01:05:54.915Z,980.22
2016-12-24T01:06:54.874Z,980.23
2016-12-24T01:07:54.836Z,980.22
2016-12-24T01:08:54.795Z,980.31
2016-12-24T01:09:54.754Z,980.34
2016-12-24T01:10:54.713Z,980.33
2016-12-24T01:11:54.674Z,980.32
2016-12-24T01:12:54.632Z,980.33
2016-12-24T01:13:54.591Z,980.38
2016-12-24T01:14:54.551Z,980.4
2016-12-24T01:15:54.511Z,980.43
2016-12-24T01:16:54.471Z,980.43
2016-12-24T01:17:54.431Z,980.45
2016-12-24T01:18:54.391Z,980.47
2016-12-24T01:19:54.351Z,980.45
2016-12-24T01:20:54.311Z,980.43
2016-12-24T01:21:54.272Z,980.46
2016-12-24T01:22:54.231Z,980.46
2016-12-24T01:23:54.189Z,980.46
2016-12-24T01:24:54.156Z,980.45
2016-12-24T01:25:54.107Z,980.45
2016-12-24T01:26:54.069Z,980.45
2016-12-24T01:27:54.027Z,980.41
2016-12-24T01:28:53.995Z,980.4
2016-12-24T01:29:53.947Z,980.37
2016-12-24T01:30:53.908Z,980.37
2016-12-24T01:31:53.865Z,980.38
2016-12-24T01:32:53.828Z,980.4
2016-12-24T01:33:53.787Z,980.39
2016-12-24T01:34:53.746Z,980.43
2016-12-24T01:35:53.706Z,980.48
2016-12-24T01:36:53.666Z,980.52
2016-12-24T01:37:53.637Z,980.5
2016-12-24T01:38:53.584Z,980.55
2016-12-24T01:39:53.543Z,980.54
2016-12-24T01:40:53.508Z,980.56
2016-12-24T01:41:53.463Z,980.53
2016-12-24T01:42:53.424Z,980.53
2016-12-24T01:43:53.383Z,980.5
2016-12-24T01:44:53.342Z,980.54
2016-12-24T01:45:53.305Z,980.53
2016-12-24T01:46:53.261Z,980.53
2016-12-24T01:47:53.221Z,980.56
2016-12-24T01:48:53.181Z,980.52
2016-12-24T01:49:53.140Z,980.5
2016-12-24T01:50:53.099Z,980.5
2016-12-24T01:51:53.059Z,980.53
2016-12-24T01:52:53.019Z,980.53
2016-12-24T01:53:52.978Z,980.56
2016-12-24T01:54:52.938Z,980.52
2016-12-24T01:55:52.899Z,980.56
2016-12-24T01:56:52.858Z,980.51
2016-12-24T01:57:52.817Z,980.55
2016-12-24T01:58:52.778Z,980.56
2016-12-24T01:59:52.736Z,980.61
2016-12-24T02:00:52.697Z,980.62
2016-12-24T02:01:52.656Z,980.62
2016-12-24T02:02:52.615Z,980.64
2016-12-24T02:03:52.577Z,980.67
2016-12-24T02:04:52.534Z,980.69
2016-12-24T02:05:52.494Z,980.67
2016-12-24T02:06:52.454Z,980.68
2016-12-24T02:07:52.413Z,980.73
2016-12-24T02:08:52.371Z,980.71
2016-12-24T02:09:52.335Z,980.76
2016-12-24T02:10:52.291Z,980.75
2016-12-24T02:11:52.250Z,980.8
2016-12-24T02:12:52.209Z,980.78
2016-12-24T02:13:52.170Z,980.81
2016-12-24T02:14:52.130Z,980.89
2016-12-24T02:15:52.093Z,980.86
2016-12-24T02:16:52.049Z,980.86
2016-12-24T02:17:52.007Z,980.89
2016-12-24T02:18:51.970Z,980.88
2016-12-24T02:19:51.927Z,980.89
2016-12-24T02:20:51.888Z,980.84
2016-12-24T02:21:51.847Z,980.86
2016-12-24T02:22:51.808Z,980.88
2016-12-24T02:23:51.765Z,980.84
2016-12-24T02:24:51.726Z,980.84
2016-12-24T02:25:51.686Z,980.85
2016-12-24T02:26:51.645Z,980.85
2016-12-24T02:27:51.603Z,980.88
2016-12-24T02:28:51.563Z,980.88
2016-12-24T02:29:51.527Z,980.91
2016-12-24T02:30:51.482Z,980.87
2016-12-24T02:31:51.444Z,980.87
2016-12-24T02:32:51.401Z,980.89
2016-12-24T02:33:51.360Z,980.87
2016-12-24T02:34:51.319Z,980.92
2016-12-24T02:35:51.279Z,980.89
2016-12-24T02:36:51.239Z,980.94
2016-12-24T02:37:51.201Z,980.88
2016-12-24T02:38:51.159Z,980.88
2016-12-24T02:39:51.118Z,980.9
2016-12-24T02:40:51.078Z,980.91
2016-12-24T02:41:51.037Z,980.86
2016-12-24T02:42:50.996Z,980.92
2016-12-24T02:43:50.956Z,980.88
2016-12-24T02:44:50.915Z,980.78
2016-12-24T02:45:50.874Z,980.83
2016-12-24T02:46:50.833Z,980.8
2016-12-24T02:47:50.797Z,980.8
2016-12-24T02:48:50.753Z,980.83
2016-12-24T02:49:50.716Z,980.86
2016-12-24T02:50:50.672Z,980.84
2016-12-24T02:51:50.634Z,980.85
2016-12-24T02:52:50.591Z,980.85
2016-12-24T02:53:50.551Z,980.89
2016-12-24T02:54:50.511Z,980.86
2016-12-24T02:55:50.473Z,980.9
2016-12-24T02:56:50.432Z,980.9
2016-12-24T02:57:50.394Z,980.91
2016-12-24T02:58:50.351Z,980.93
2016-12-24T02:59:50.311Z,980.93
2016-12-24T03:00:50.270Z,980.92
2016-12-24T03:01:50.230Z,980.91
2016-12-24T03:02:50.189Z,980.96
2016-12-24T03:03:50.154Z,980.95
2016-12-24T03:04:50.108Z,980.93
2016-12-24T03:05:50.068Z,980.91
2016-12-24T03:06:50.027Z,980.91
2016-12-24T03:07:49.987Z,980.93
2016-12-24T03:08:49.947Z,980.88
2016-12-24T03:09:49.907Z,980.92
2016-12-24T03:10:49.865Z,980.91
2016-12-24T03:11:49.825Z,980.91
2016-12-24T03:12:49.784Z,980.9
2016-12-24T03:13:49.744Z,980.9
2016-12-24T03:14:49.706Z,980.96
2016-12-24T03:15:49.662Z,980.95
2016-12-24T03:16:49.623Z,980.94
2016-12-24T03:17:49.583Z,980.91
2016-12-24T03:18:49.541Z,980.88
2016-12-24T03:19:49.502Z,980.88
2016-12-24T03:20:49.461Z,980.86
2016-12-24T03:21:49.421Z,980.84
2016-12-24T03:22:49.379Z,980.87
2016-12-24T03:23:49.340Z,980.9
2016-12-24T03:24:49.299Z,980.98
2016-12-24T03:25:49.260Z,980.94
2016-12-24T03:26:49.217Z,980.89
2016-12-24T03:27:49.178Z,980.94
2016-12-24T03:28:49.137Z,980.89
2016-12-24T03:29:49.095Z,980.99
2016-12-24T03:30:49.057Z,980.95
2016-12-24T03:31:49.015Z,980.95
2016-12-24T03:32:48.975Z,980.91
2016-12-24T03:33:48.934Z,980.96
2016-12-24T03:34:48.893Z,980.89
2016-12-24T03:35:48.853Z,980.92
2016-12-24T03:36:48.813Z,980.91
2016-12-24T03:37:48.772Z,980.91
2016-12-24T03:38:48.731Z,980.96
2016-12-24T03:39:48.692Z,980.93
2016-12-24T03:40:48.651Z,980.87
2016-12-24T03:41:48.611Z,980.86
2016-12-24T03:42:48.570Z,980.88
2016-12-24T03:43:48.529Z,980.87
2016-12-24T03:44:48.489Z,980.87
2016-12-24T03:45:48.450Z,980.85
2016-12-24T03:46:48.407Z,980.79
2016-12-24T03:47:48.367Z,980.83
2016-12-24T03:48:48.327Z,980.82
2016-12-24T03:49:48.287Z,980.81
2016-12-24T03:50:48.246Z,980.82
2016-12-24T03:51:48.207Z,980.75
2016-12-24T03:52:48.164Z,980.73
2016-12-24T03:53:48.126Z,980.73
2016-12-24T03:54:48.083Z,980.75
2016-12-24T03:55:48.044Z,980.72
2016-12-24T03:56:48.006Z,980.7
2016-12-24T03:57:47.962Z,980.67
2016-12-24T03:58:47.922Z,980.61
2016-12-24T03:59:47.879Z,980.61
2016-12-24T04:00:47.842Z,980.52
2016-12-24T04:01:47.799Z,980.53
2016-12-24T04:02:47.760Z,980.46
2016-12-24T04:03:47.718Z,980.44
2016-12-24T04:04:47.679Z,980.51
2016-12-24T04:05:47.636Z,980.58
2016-12-24T04:06:47.596Z,980.62
2016-12-24T04:07:47.557Z,980.68
2016-12-24T04:08:47.517Z,980.61
2016-12-24T04:09:47.475Z,980.61
2016-12-24T04:10:47.433Z,980.63
2016-12-24T04:11:47.397Z,980.63
2016-12-24T04:12:47.351Z,980.61
2016-12-24T04:13:47.312Z,980.62
2016-12-24T04:14:47.270Z,980.61
2016-12-24T04:15:47.232Z,980.61
2016-12-24T04:16:47.189Z,980.53
2016-12-24T04:17:47.150Z,980.54
2016-12-24T04:18:47.107Z,980.5
2016-12-24T04:19:47.067Z,980.45
2016-12-24T04:20:47.027Z,980.42
2016-12-24T04:21:46.984Z,980.4
2016-12-24T04:22:46.943Z,980.4
2016-12-24T04:23:46.901Z,980.43
2016-12-24T04:24:46.862Z,980.43
2016-12-24T04:25:46.821Z,980.41
2016-12-24T04:26:46.782Z,980.36
2016-12-24T04:27:46.739Z,980.35
2016-12-24T04:28:46.703Z,980.34
2016-12-24T04:29:46.658Z,980.38
2016-12-24T04:30:46.617Z,980.38
2016-12-24T04:31:46.576Z,980.35
2016-12-24T04:32:46.535Z,980.43
2016-12-24T04:33:46.495Z,980.46
2016-12-24T04:34:46.453Z,980.45
2016-12-24T04:35:46.413Z,980.43
2016-12-24T04:36:46.372Z,980.47
2016-12-24T04:37:46.330Z,980.5
2016-12-24T04:38:46.289Z,980.45
2016-12-24T04:39:46.249Z,980.47
2016-12-24T04:40:46.208Z,980.4
2016-12-24T04:41:46.166Z,980.4
2016-12-24T04:42:46.124Z,980.42
2016-12-24T04:43:46.086Z,980.42
2016-12-24T04:44:46.042Z,980.42
2016-12-24T04:45:46.001Z,980.45
2016-12-24T04:46:45.961Z,980.39
2016-12-24T04:47:45.919Z,980.4
2016-12-24T04:48:45.879Z,980.47
2016-12-24T04:49:45.836Z,980.45
2016-12-24T04:50:45.796Z,980.44
2016-12-24T04:51:45.755Z,980.39
2016-12-24T04:52:45.714Z,980.43
2016-12-24T04:53:45.672Z,980.36
2016-12-24T04:54:45.640Z,980.39
2016-12-24T04:55:45.592Z,980.38
2016-12-24T04:56:45.548Z,980.42
2016-12-24T04:57:45.509Z,980.4
2016-12-24T04:58:45.469Z,980.41
2016-12-24T04:59:45.426Z,980.42
2016-12-24T05:00:45.383Z,980.37
2016-12-24T05:01:45.344Z,980.41
2016-12-24T05:02:45.302Z,980.4
2016-12-24T05:03:45.260Z,980.43
2016-12-24T05:04:45.219Z,980.37
2016-12-24T05:05:45.178Z,980.31
2016-12-24T05:06:45.137Z,980.31
2016-12-24T05:07:45.095Z,980.29
2016-12-24T05:08:45.055Z,980.3
2016-12-24T05:09:45.012Z,980.34
2016-12-24T05:10:44.972Z,980.39
2016-12-24T05:11:44.930Z,980.4
2016-12-24T05:12:44.890Z,980.4
2016-12-24T05:13:44.849Z,980.49
2016-12-24T05:14:44.805Z,980.4
2016-12-24T05:15:44.767Z,980.35
2016-12-24T05:16:44.726Z,980.34
2016-12-24T05:17:44.683Z,980.3
2016-12-24T05:18:44.642Z,980.32
2016-12-24T05:19:44.601Z,980.28
2016-12-24T05:20:44.560Z,980.28
2016-12-24T05:21:44.519Z,980.27
2016-12-24T05:22:44.478Z,980.27
2016-12-24T05:23:44.436Z,980.22
2016-12-24T05:24:44.395Z,980.17
2016-12-24T05:25:44.356Z,980.15
2016-12-24T05:26:44.314Z,980.14
2016-12-24T05:27:44.273Z,980.16
2016-12-24T05:28:44.231Z,980.14
2016-12-24T05:29:44.190Z,980.1
2016-12-24T05:30:44.150Z,980.09
2016-12-24T05:31:44.109Z,980.12
2016-12-24T05:32:44.069Z,980.07
2016-12-24T05:33:44.025Z,980.08
2016-12-24T05:34:43.987Z,980.11
2016-12-24T05:35:43.946Z,980.15
2016-12-24T05:36:43.904Z,980.1
2016-12-24T05:37:43.862Z,980.09
2016-12-24T05:38:43.822Z,980.07
2016-12-24T05:39:43.780Z,980.02
2016-12-24T05:40:43.739Z,980.06
2016-12-24T05:41:43.697Z,980.03
2016-12-24T05:42:43.659Z,980.04
2016-12-24T05:43:43.616Z,980.11
2016-12-24T05:44:43.574Z,980.12
2016-12-24T05:45:43.534Z,980.14
2016-12-24T05:46:43.493Z,980.15
2016-12-24T05:47:43.450Z,980.13
2016-12-24T05:48:43.411Z,980.13
2016-12-24T05:49:43.369Z,980.2
2016-12-24T05:50:43.328Z,980.2
2016-12-24T05:51:43.288Z,980.23
2016-12-24T05:52:43.246Z,980.25
2016-12-24T05:53:43.207Z,980.25
2016-12-24T05:54:43.164Z,980.29
2016-12-24T05:55:43.122Z,980.35
2016-12-24T05:56:43.082Z,980.33
2016-12-24T05:57:43.040Z,980.35
2016-12-24T05:58:42.998Z,980.34
2016-12-24T05:59:42.959Z,980.38
2016-12-24T06:00:42.916Z,980.31
2016-12-24T06:01:42.876Z,980.28
2016-12-24T06:02:42.835Z,980.27
2016-12-24T06:03:42.794Z,980.28
2016-12-24T06:04:42.753Z,980.3
2016-12-24T06:05:42.711Z,980.25
2016-12-24T06:06:42.669Z,980.27
2016-12-24T06:07:42.629Z,980.26
2016-12-24T06:08:42.589Z,980.28
2016-12-24T06:09:42.547Z,980.31
2016-12-24T06:10:42.504Z,980.29
2016-12-24T06:11:42.465Z,980.26
2016-12-24T06:12:42.421Z,980.26
2016-12-24T06:13:42.381Z,980.22
2016-12-24T06:14:42.340Z,980.22
2016-12-24T06:15:42.300Z,980.26
2016-12-24T06:16:42.255Z,980.29
2016-12-24T06:17:42.216Z,980.29
2016-12-24T06:18:42.179Z,980.27
2016-12-24T06:19:42.133Z,980.29
2016-12-24T06:20:42.092Z,980.29
2016-12-24T06:21:42.050Z,980.31
2016-12-24T06:22:42.009Z,980.28
2016-12-24T06:23:41.967Z,980.27
2016-12-24T06:24:41.926Z,980.2
2016-12-24T06:25:41.885Z,980.22
2016-12-24T06:26:41.844Z,980.19
2016-12-24T06:27:41.801Z,980.16
2016-12-24T06:28:41.761Z,980.13
2016-12-24T06:29:41.719Z,980.15
2016-12-24T06:30:41.678Z,980.13
2016-12-24T06:31:41.638Z,980.18
2016-12-24T06:32:41.593Z,980.13
2016-12-24T06:33:41.553Z,980.19
2016-12-24T06:34:41.513Z,980.16
2016-12-24T06:35:41.469Z,980.19
2016-12-24T06:36:41.429Z,980.17
2016-12-24T06:37:41.388Z,980.17
2016-12-24T06:38:41.345Z,980.23
2016-12-24T06:39:41.307Z,980.23
2016-12-24T06:40:41.264Z,980.23
2016-12-24T06:41:41.222Z,980.27
2016-12-24T06:42:41.180Z,980.23
2016-12-24T06:43:41.140Z,980.26
2016-12-24T06:44:41.098Z,980.29
2016-12-24T06:45:41.057Z,980.31
2016-12-24T06:46:41.014Z,980.28
2016-12-24T06:47:40.974Z,980.24
2016-12-24T06:48:40.933Z,980.31
2016-12-24T06:49:40.893Z,980.32
2016-12-24T06:50:40.849Z,980.3
2016-12-24T06:51:40.807Z,980.31
2016-12-24T06:52:40.767Z,980.28
2016-12-24T06:53:40.725Z,980.28
2016-12-24T06:54:40.684Z,980.24
2016-12-24T06:55:40.643Z,980.29
2016-12-24T06:56:40.603Z,980.24
2016-12-24T06:57:40.561Z,980.29
2016-12-24T06:58:40.520Z,980.26
2016-12-24T06:59:40.478Z,980.23
2016-12-24T07:00:40.438Z,980.19
2016-12-24T07:01:40.395Z,980.2
2016-12-24T07:02:40.352Z,980.18
2016-12-24T07:03:40.315Z,980.21
2016-12-24T07:04:40.271Z,980.18
2016-12-24T07:05:40.231Z,980.16
2016-12-24T07:06:40.190Z,980.13
2016-12-24T07:07:40.150Z,980.12
2016-12-24T07:08:40.107Z,980.1
2016-12-24T07:09:40.068Z,980.14
2016-12-24T07:10:40.028Z,980.12
2016-12-24T07:11:39.987Z,980.1
2016-12-24T07:12:39.944Z,980.14
2016-12-24T07:13:39.902Z,980.12
2016-12-24T07:14:39.862Z,980.14
2016-12-24T07:15:39.822Z,980.15
2016-12-24T07:16:39.781Z,980.19
2016-12-24T07:17:39.738Z,980.18
2016-12-24T07:18:39.699Z,980.2
2016-12-24T07:19:39.658Z,980.15
2016-12-24T07:20:39.619Z,980.22
2016-12-24T07:21:39.577Z,980.19
2016-12-24T07:22:39.535Z,980.24
2016-12-24T07:23:39.493Z,980.23
2016-12-24T07:24:39.452Z,980.25
2016-12-24T07:25:39.413Z,980.2
2016-12-24T07:26:39.370Z,980.2
2016-12-24T07:27:39.329Z,980.19
2016-12-24T07:28:39.289Z,980.18
2016-12-24T07:29:39.251Z,980.18
2016-12-24T07:30:39.206Z,980.23
2016-12-24T07:31:39.166Z,980.24
2016-12-24T07:32:39.126Z,980.3
2016-12-24T07:33:39.081Z,980.28
2016-12-24T07:34:39.043Z,980.26
2016-12-24T07:35:39.005Z,980.31
2016-12-24T07:36:38.963Z,980.27
2016-12-24T07:37:38.921Z,980.28
2016-12-24T07:38:38.881Z,980.29
2016-12-24T07:39:38.840Z,980.26
2016-12-24T07:40:38.799Z,980.25
2016-12-24T07:41:38.760Z,980.28
2016-12-24T07:42:38.721Z,980.32
2016-12-24T07:43:38.678Z,980.37
2016-12-24T07:44:38.639Z,980.37
2016-12-24T07:45:38.596Z,980.42
2016-12-24T07:46:38.555Z,980.51
2016-12-24T07:47:38.515Z,980.47
2016-12-24T07:48:38.474Z,980.48
2016-12-24T07:49:38.435Z,980.48
2016-12-24T07:50:38.392Z,980.52
2016-12-24T07:51:38.352Z,980.49
2016-12-24T07:52:38.313Z,980.49
2016-12-24T07:53:38.271Z,980.5
2016-12-24T07:54:38.230Z,980.47
2016-12-24T07:55:38.189Z,980.5
2016-12-24T07:56:38.147Z,980.51
2016-12-24T07:57:38.109Z,980.53
2016-12-24T07:58:38.069Z,980.54
2016-12-24T07:59:38.028Z,980.52
2016-12-24T08:00:37.985Z,980.52
2016-12-24T08:01:37.945Z,980.48
2016-12-24T08:02:37.904Z,980.47
2016-12-24T08:03:37.864Z,980.46
2016-12-24T08:04:37.824Z,980.48
2016-12-24T08:05:37.792Z,980.49
2016-12-24T08:06:37.742Z,980.54
2016-12-24T08:07:37.701Z,980.55
2016-12-24T08:08:37.662Z,980.55
2016-12-24T08:09:37.620Z,980.53
2016-12-24T08:10:37.580Z,980.6
2016-12-24T08:11:37.539Z,980.64
2016-12-24T08:12:37.498Z,980.69
2016-12-24T08:13:37.462Z,980.75
2016-12-24T08:14:37.418Z,980.78
2016-12-24T08:15:37.377Z,980.79
2016-12-24T08:16:37.337Z,980.76
2016-12-24T08:17:37.298Z,980.88
2016-12-24T08:18:37.255Z,980.81
2016-12-24T08:19:37.219Z,980.85
2016-12-24T08:20:37.171Z,980.81
2016-12-24T08:21:37.135Z,980.82
2016-12-24T08:22:37.094Z,980.9
2016-12-24T08:23:37.061Z,980.9
2016-12-24T08:24:37.013Z,980.91
2016-12-24T08:25:36.974Z,980.89
2016-12-24T08:26:36.932Z,980.87
2016-12-24T08:27:36.893Z,980.88
2016-12-24T08:28:36.852Z,980.96
2016-12-24T08:29:36.812Z,980.99
2016-12-24T08:30:36.772Z,981.08
2016-12-24T08:31:36.732Z,981.07
2016-12-24T08:32:36.692Z,981.08
2016-12-24T08:33:36.652Z,981.08
2016-12-24T08:34:36.611Z,981.08
2016-12-24T08:35:36.571Z,981.05
2016-12-24T08:36:36.534Z,981.06
2016-12-24T08:37:36.490Z,981.09
2016-12-24T08:38:36.451Z,981.05
2016-12-24T08:39:36.409Z,981.05
2016-12-24T08:40:36.373Z,981.07
2016-12-24T08:41:36.331Z,981.05
2016-12-24T08:42:36.291Z,981.06
2016-12-24T08:43:36.250Z,981.05
2016-12-24T08:44:36.213Z,981.06
2016-12-24T08:45:36.175Z,981.02
2016-12-24T08:46:36.132Z,980.97
2016-12-24T08:47:36.092Z,981.01
2016-12-24T08:48:36.054Z,980.98
2016-12-24T08:49:36.014Z,981.03
2016-12-24T08:50:35.975Z,981.05
2016-12-24T08:51:35.935Z,981.08
2016-12-24T08:52:35.896Z,981.04
2016-12-24T08:53:35.858Z,981.11
2016-12-24T08:54:35.827Z,981.12
2016-12-24T08:55:35.780Z,981.11
2016-12-24T08:56:35.741Z,981.17
2016-12-24T08:57:35.702Z,981.18
2016-12-24T08:58:35.664Z,981.22
2016-12-24T08:59:35.627Z,981.23
2016-12-24T09:00:35.588Z,981.23
2016-12-24T09:01:35.551Z,981.23
2016-12-24T09:02:35.513Z,981.24
2016-12-24T09:03:35.478Z,981.18
2016-12-24T09:04:35.438Z,981.21
2016-12-24T09:05:35.401Z,981.19
2016-12-24T09:06:35.366Z,981.24
2016-12-24T09:07:35.327Z,981.24
2016-12-24T09:08:35.293Z,981.25
2016-12-24T09:09:35.254Z,981.2
2016-12-24T09:10:35.216Z,981.13
2016-12-24T09:11:35.180Z,981.12
2016-12-24T09:12:35.141Z,981.2
2016-12-24T09:13:35.106Z,981.16
2016-12-24T09:14:35.069Z,981.22
2016-12-24T09:15:35.030Z,981.24
2016-12-24T09:16:34.993Z,981.19
2016-12-24T09:17:34.956Z,981.25
2016-12-24T09:18:34.919Z,981.28
2016-12-24T09:19:34.884Z,981.28
2016-12-24T09:20:34.845Z,981.22
2016-12-24T09:21:34.809Z,981.17
2016-12-24T09:22:34.770Z,981.14
2016-12-24T09:23:34.733Z,981.14
2016-12-24T09:24:34.694Z,981.17
2016-12-24T09:25:34.657Z,981.22
2016-12-24T09:26:34.623Z,981.21
2016-12-24T09:27:34.582Z,981.24
2016-12-24T09:28:34.544Z,981.2
2016-12-24T09:29:34.507Z,981.25
2016-12-24T09:30:34.468Z,981.25
2016-12-24T09:31:34.430Z,981.28
2016-12-24T09:32:34.391Z,981.27
2016-12-24T09:33:34.354Z,981.18
2016-12-24T09:34:34.316Z,981.15
2016-12-24T09:35:34.279Z,981.15
2016-12-24T09:36:34.243Z,981.15
2016-12-24T09:37:34.204Z,981.15
2016-12-24T09:38:34.165Z,981.15
2016-12-24T09:39:34.126Z,981.18
2016-12-24T09:40:34.090Z,981.17
2016-12-24T09:41:34.049Z,981.17
2016-12-24T09:42:34.011Z,981.19
2016-12-24T09:43:33.974Z,981.16
2016-12-24T09:44:33.939Z,981.08
2016-12-24T09:45:33.898Z,981
2016-12-24T09:46:33.859Z,980.99
2016-12-24T09:47:33.821Z,980.94
2016-12-24T09:48:33.782Z,981.01
2016-12-24T09:49:33.744Z,980.98
2016-12-24T09:50:33.707Z,980.97
2016-12-24T09:51:33.670Z,980.88
2016-12-24T09:52:33.640Z,980.87
2016-12-24T09:53:33.594Z,980.84
2016-12-24T09:54:33.556Z,980.85
2016-12-24T09:55:33.518Z,980.82
2016-12-24T09:56:33.481Z,980.74
2016-12-24T09:57:33.444Z,980.7
2016-12-24T09:58:33.406Z,980.58
2016-12-24T09:59:33.369Z,980.58
2016-12-24T10:00:33.332Z,980.55
2016-12-24T10:01:33.296Z,980.5
2016-12-24T10:02:33.259Z,980.43
2016-12-24T10:03:33.223Z,980.39
2016-12-24T10:04:33.184Z,980.37
2016-12-24T10:05:33.150Z,980.37
2016-12-24T10:06:33.112Z,980.23
2016-12-24T10:07:33.077Z,980.29
2016-12-24T10:08:33.038Z,980.27
2016-12-24T10:09:33.002Z,980.37
2016-12-24T10:10:32.969Z,980.41
2016-12-24T10:11:32.929Z,980.38
2016-12-24T10:12:32.892Z,980.45
2016-12-24T10:13:32.858Z,980.45
2016-12-24T10:14:32.818Z,980.49
2016-12-24T10:15:32.781Z,980.46
2016-12-24T10:16:32.744Z,980.45
2016-12-24T10:17:32.709Z,980.34
2016-12-24T10:18:32.670Z,980.31
2016-12-24T10:19:32.634Z,980.26
2016-12-24T10:20:32.595Z,980.19
2016-12-24T10:21:32.558Z,980.16
2016-12-24T10:22:32.522Z,980.09
2016-12-24T10:23:32.485Z,980.08
2016-12-24T10:24:32.448Z,980.04
2016-12-24T10:25:32.410Z,980.06
2016-12-24T10:26:32.372Z,980.05
2016-12-24T10:27:32.335Z,980.01
2016-12-24T10:28:32.297Z,980.06
2016-12-24T10:29:32.261Z,980.03
2016-12-24T10:30:32.227Z,980.05
2016-12-24T10:31:32.185Z,980.07
2016-12-24T10:32:32.149Z,980.14
2016-12-24T10:33:32.108Z,980.07
2016-12-24T10:34:32.071Z,980.07
2016-12-24T10:35:32.034Z,980.01
2016-12-24T10:36:31.995Z,980.03
2016-12-24T10:37:31.958Z,980.08
2016-12-24T10:38:31.920Z,980.08
2016-12-24T10:39:31.885Z,980.08
2016-12-24T10:40:31.843Z,980.06
2016-12-24T10:41:31.806Z,980
2016-12-24T10:42:31.772Z,980.02
2016-12-24T10:43:31.729Z,980.06
2016-12-24T10:44:31.692Z,980.07
2016-12-24T10:45:31.654Z,980.12
2016-12-24T10:46:31.615Z,980.11
2016-12-24T10:47:31.577Z,980.03
2016-12-24T10:48:31.539Z,980.08
2016-12-24T10:49:31.502Z,980.07
2016-12-24T10:50:31.465Z,980.09
2016-12-24T10:51:31.425Z,980.11
2016-12-24T10:52:31.387Z,980.13
2016-12-24T10:53:31.350Z,980.16
2016-12-24T10:54:31.310Z,980.16
2016-12-24T10:55:31.272Z,980.18
2016-12-24T10:56:31.233Z,980.16
2016-12-24T10:57:31.196Z,980.15
2016-12-24T10:58:31.158Z,980.07
2016-12-24T10:59:31.119Z,980
2016-12-24T11:00:31.082Z,979.99
2016-12-24T11:01:31.043Z,979.97
2016-12-24T11:02:31.005Z,979.99
2016-12-24T11:03:30.966Z,979.89
2016-12-24T11:04:30.928Z,979.92
2016-12-24T11:05:30.888Z,979.91
2016-12-24T11:06:30.850Z,979.86
2016-12-24T11:07:30.812Z,979.82
2016-12-24T11:08:30.774Z,979.78
2016-12-24T11:09:30.735Z,979.78
2016-12-24T11:10:30.696Z,979.74
2016-12-24T11:11:30.658Z,979.72
2016-12-24T11:12:30.620Z,979.71
2016-12-24T11:13:30.582Z,979.66
2016-12-24T11:14:30.543Z,979.57
2016-12-24T11:15:30.505Z,979.59
2016-12-24T11:16:30.465Z,979.62
2016-12-24T11:17:30.427Z,979.62
2016-12-24T11:18:30.392Z,979.65
2016-12-24T11:19:30.355Z,979.63
2016-12-24T11:20:30.314Z,979.66
2016-12-24T11:21:30.273Z,979.67
2016-12-24T11:22:30.247Z,979.64
2016-12-24T11:23:30.197Z,979.6
2016-12-24T11:24:30.158Z,979.57
2016-12-24T11:25:30.119Z,979.64
2016-12-24T11:26:30.083Z,979.66
2016-12-24T11:27:30.041Z,979.67
2016-12-24T11:28:30.005Z,979.67
2016-12-24T11:29:29.965Z,979.67
2016-12-24T11:30:29.928Z,979.64
2016-12-24T11:31:29.891Z,979.65
2016-12-24T11:32:29.851Z,979.65
2016-12-24T11:33:29.816Z,979.63
2016-12-24T11:34:29.773Z,979.67
2016-12-24T11:35:29.734Z,979.68
2016-12-24T11:36:29.696Z,979.74
2016-12-24T11:37:29.657Z,979.71
2016-12-24T11:38:29.619Z,979.71
2016-12-24T11:39:29.580Z,979.68
2016-12-24T11:40:29.543Z,979.68
2016-12-24T11:41:29.504Z,979.62
2016-12-24T11:42:29.465Z,979.57
2016-12-24T11:43:29.427Z,979.51
2016-12-24T11:44:29.387Z,979.43
2016-12-24T11:45:29.352Z,979.34
2016-12-24T11:46:29.311Z,979.32
2016-12-24T11:47:29.277Z,979.26
2016-12-24T11:48:29.233Z,979.21
2016-12-24T11:49:29.195Z,979.25
2016-12-24T11:50:29.157Z,979.31
2016-12-24T11:51:29.118Z,979.36
2016-12-24T11:52:29.081Z,979.42
2016-12-24T11:53:29.043Z,979.45
2016-12-24T11:54:29.003Z,979.46
2016-12-24T11:55:28.966Z,979.48
2016-12-24T11:56:28.927Z,979.52
2016-12-24T11:57:28.891Z,979.57
2016-12-24T11:58:28.851Z,979.58
2016-12-24T11:59:28.814Z,979.56
2016-12-24T12:00:28.774Z,979.55
2016-12-24T12:01:28.737Z,979.59
2016-12-24T12:02:28.697Z,979.62
2016-12-24T12:03:28.660Z,979.59
2016-12-24T12:04:28.620Z,979.58
2016-12-24T12:05:28.582Z,979.53
2016-12-24T12:06:28.545Z,979.56
2016-12-24T12:07:28.505Z,979.52
2016-12-24T12:08:28.469Z,979.5
2016-12-24T12:09:28.431Z,979.48
2016-12-24T12:10:28.393Z,979.45
2016-12-24T12:11:28.358Z,979.45
2016-12-24T12:12:28.315Z,979.44
2016-12-24T12:13:28.276Z,979.44
2016-12-24T12:14:28.237Z,979.45
2016-12-24T12:15:28.202Z,979.51
2016-12-24T12:16:28.161Z,979.5
2016-12-24T12:17:28.126Z,979.56
2016-12-24T12:18:28.085Z,979.58
2016-12-24T12:19:28.047Z,979.66
2016-12-24T12:20:28.009Z,979.66
2016-12-24T12:21:27.970Z,979.59
2016-12-24T12:22:27.932Z,979.48
2016-12-24T12:23:27.893Z,979.43
2016-12-24T12:24:27.856Z,979.45
2016-12-24T12:25:27.817Z,979.5
2016-12-24T12:26:27.781Z,979.47
2016-12-24T12:27:27.741Z,979.44
2016-12-24T12:28:27.704Z,979.45
2016-12-24T12:29:27.666Z,979.4
2016-12-24T12:30:27.627Z,979.36
2016-12-24T12:31:27.591Z,979.41